Time;durP1;ratioP1;P1;durP2;ratioP2;P2;SDS_P1;SDS_P2;PMS_P1;PMS_P2;Temp;Humidity;BMP_temperature;BMP_pressure;BME280_temperature;BME280_humidity;BME280_pressure;Samples;Min_cycle;Max_cycle;Signal;HPM_P1;HPM_P2
2022/12/17 13:06:51;;;;;;;88.93;39.70;;;0.30;99.90;;;;;;4972751;28;20077;-64
2022/12/17 13:09:17;;;;;;;68.28;33.00;;;-0.70;99.90;;;;;;4964573;28;20394;-65
2022/12/17 13:11:59;;;;;;;82.40;37.85;;;-0.10;99.90;;;;;;4964374;28;20043;-64
2022/12/17 13:14:34;;;;;;;78.47;33.42;;;-1.10;99.90;;;;;;4965079;28;20090;-65
2022/12/17 13:17:18;;;;;;;69.25;31.35;;;-1.30;99.90;;;;;;4964956;28;20078;-65
2022/12/17 13:19:57;;;;;;;77.47;33.33;;;-1.40;99.90;;;;;;4964233;28;20514;-64
2022/12/17 13:22:24;;;;;;;83.97;35.17;;;-1.40;99.90;;;;;;4962918;28;20050;-65
2022/12/17 13:24:52;;;;;;;68.88;30.73;;;-0.50;99.90;;;;;;4964666;28;20101;-64
2022/12/17 13:27:30;;;;;;;88.93;40.88;;;-0.70;99.90;;;;;;4964538;28;20654;-64
2022/12/17 13:29:57;;;;;;;73.70;34.97;;;-0.90;99.90;;;;;;4962665;28;20113;-65
2022/12/17 13:32:32;;;;;;;87.78;43.40;;;-0.10;99.90;;;;;;4978718;28;20397;-64
2022/12/17 13:35:17;;;;;;;80.88;38.25;;;-1.10;99.90;;;;;;4963209;28;20314;-64
2022/12/17 13:38:04;;;;;;;70.35;31.58;;;-1.40;99.90;;;;;;4963079;28;20143;-66
2022/12/17 13:40:32;;;;;;;80.60;33.40;;;-0.20;99.90;;;;;;4964139;28;20126;-65
2022/12/17 13:42:58;;;;;;;70.20;32.88;;;-1.20;99.90;;;;;;4965116;28;20043;-65
2022/12/17 13:45:25;;;;;;;86.05;42.72;;;-1.20;99.90;;;;;;4963395;28;20449;-64
2022/12/17 13:47:58;;;;;;;69.53;29.90;;;-0.30;99.90;;;;;;4964142;28;20047;-65
2022/12/17 13:50:29;;;;;;;68.18;29.75;;;0.20;99.90;;;;;;4964432;28;20043;-64
2022/12/17 13:52:55;;;;;;;78.30;33.85;;;-0.80;99.90;;;;;;4962162;28;20647;-64
2022/12/17 13:55:28;;;;;;;72.68;29.98;;;-0.80;99.90;;;;;;4962757;28;20050;-64
2022/12/17 13:57:53;;;;;;;57.83;25.15;;;-0.60;99.90;;;;;;4964222;28;20254;-64
2022/12/17 14:00:22;;;;;;;84.13;40.17;;;-0.40;99.90;;;;;;4962945;28;20490;-65
2022/12/17 14:02:48;;;;;;;84.25;40.08;;;-1.20;99.90;;;;;;4962956;28;20097;-64
2022/12/17 14:05:24;;;;;;;72.53;34.30;;;-0.70;99.90;;;;;;4972102;28;20468;-64
2022/12/17 14:07:50;;;;;;;63.97;29.88;;;-0.50;99.90;;;;;;4962355;28;20043;-65
2022/12/17 14:10:17;;;;;;;84.32;38.13;;;-0.30;99.90;;;;;;4962414;28;20544;-64
2022/12/17 14:12:43;;;;;;;79.88;37.47;;;-0.30;99.90;;;;;;4963289;28;20054;-64
2022/12/17 14:15:24;;;;;;;73.78;32.42;;;-0.90;99.90;;;;;;4965515;28;20545;-64
2022/12/17 14:17:51;;;;;;;79.43;35.55;;;-1.30;99.90;;;;;;4969292;28;21016;-64
2022/12/17 14:20:24;;;;;;;66.93;31.42;;;-1.10;99.90;;;;;;4969961;28;20035;-64
2022/12/17 14:22:53;;;;;;;78.75;39.42;;;-1.20;99.90;;;;;;4968419;28;20198;-65
2022/12/17 14:25:28;;;;;;;84.03;40.58;;;0.00;99.90;;;;;;4970343;28;20078;-64
2022/12/17 14:28:03;;;;;;;68.68;31.17;;;-1.00;99.90;;;;;;4969325;28;20405;-64
2022/12/17 14:30:37;;;;;;;74.35;33.45;;;-1.30;99.90;;;;;;4968505;28;20086;-64
2022/12/17 14:33:04;;;;;;;79.95;36.42;;;-1.50;99.90;;;;;;4970446;28;20047;-65
2022/12/17 14:35:34;;;;;;;85.63;41.33;;;-1.20;99.90;;;;;;4968544;28;20039;-64
2022/12/17 14:37:59;;;;;;;74.30;30.83;;;-1.40;99.90;;;;;;4970059;28;20033;-64
2022/12/17 14:40:25;;;;;;;74.95;35.60;;;-1.50;99.90;;;;;;4969769;28;20378;-64
2022/12/17 14:42:59;;;;;;;53.47;23.80;;;-0.40;99.90;;;;;;4969956;28;20112;-64
2022/12/17 14:45:26;;;;;;;70.43;31.83;;;-1.50;99.90;;;;;;4968158;28;20046;-65
2022/12/17 14:47:59;;;;;;;65.13;29.23;;;-1.30;99.90;;;;;;4968298;28;20046;-64
2022/12/17 14:50:36;;;;;;;71.75;34.63;;;-0.20;99.90;;;;;;4967873;28;20521;-64
2022/12/17 14:53:22;;;;;;;61.67;27.27;;;-1.70;99.90;;;;;;4968014;28;20035;-64
2022/12/17 14:55:56;;;;;;;60.08;24.75;;;-0.90;99.90;;;;;;4967362;28;20046;-65
2022/12/17 14:58:26;;;;;;;65.38;26.42;;;-1.70;99.90;;;;;;4968297;28;20234;-65
2022/12/17 15:01:03;;;;;;;57.60;26.88;;;-1.50;99.90;;;;;;4967923;28;20038;-64
2022/12/17 15:03:32;;;;;;;68.28;29.63;;;-1.70;99.90;;;;;;4967562;28;20038;-64
2022/12/17 15:06:01;;;;;;;65.50;31.05;;;0.20;99.90;;;;;;4967447;28;20701;-64
2022/12/17 15:08:34;;;;;;;65.45;30.02;;;-1.80;99.90;;;;;;4969982;28;20039;-65
2022/12/17 15:10:59;;;;;;;75.68;33.95;;;-1.50;99.90;;;;;;4975334;28;20046;-64
2022/12/17 15:13:25;;;;;;;76.78;34.08;;;-1.90;99.90;;;;;;4967978;28;20105;-65
2022/12/17 15:15:51;;;;;;;68.82;32.92;;;-1.60;99.90;;;;;;4968894;28;20092;-64
2022/12/17 15:18:16;;;;;;;65.78;27.58;;;-1.60;99.90;;;;;;4971959;28;20125;-64
2022/12/17 15:20:42;;;;;;;63.22;27.30;;;-2.00;99.90;;;;;;4972279;28;20053;-65
2022/12/17 15:23:15;;;;;;;68.35;29.38;;;-2.00;99.90;;;;;;4972712;28;20042;-65
2022/12/17 15:25:41;;;;;;;65.30;26.58;;;-1.20;99.90;;;;;;4973895;28;20097;-65
2022/12/17 15:28:08;;;;;;;59.72;25.30;;;-1.90;99.90;;;;;;4972619;28;20039;-65
2022/12/17 15:30:34;;;;;;;59.22;22.00;;;0.10;99.90;;;;;;4973589;28;20090;-64
2022/12/17 15:32:59;;;;;;;69.32;28.20;;;-1.90;99.90;;;;;;4971582;28;20062;-65
2022/12/17 15:35:25;;;;;;;74.90;27.65;;;-0.90;99.90;;;;;;4970188;28;20117;-64
2022/12/17 15:37:51;;;;;;;64.68;26.02;;;-2.10;99.90;;;;;;4972984;28;20130;-64
2022/12/17 15:40:16;;;;;;;79.25;31.92;;;-1.30;99.90;;;;;;4973039;28;20070;-64
2022/12/17 15:45:27;;;;;;;89.07;31.38;;;-0.30;99.90;;;;;;4972835;28;20413;-65
2022/12/17 15:47:52;;;;;;;71.80;25.40;;;-0.80;99.90;;;;;;4971707;28;20129;-65
2022/12/17 15:50:18;;;;;;;80.25;32.92;;;-2.10;99.90;;;;;;4970427;28;20070;-64
2022/12/17 15:52:44;;;;;;;86.43;31.85;;;-0.20;99.90;;;;;;4972474;28;20067;-65
2022/12/17 15:55:11;;;;;;;101.85;36.50;;;-0.60;99.90;;;;;;4972512;28;20446;-65
2022/12/17 15:57:36;;;;;;;93.05;34.47;;;-0.60;99.90;;;;;;4971188;28;20086;-65
2022/12/17 16:00:02;;;;;;;84.30;30.08;;;-2.30;99.90;;;;;;4972374;28;20101;-65
2022/12/17 16:02:28;;;;;;;98.90;34.90;;;-2.10;99.90;;;;;;4971801;28;20046;-65
2022/12/17 16:04:54;;;;;;;68.28;26.33;;;-2.50;99.90;;;;;;4972411;28;20068;-65
2022/12/17 16:07:20;;;;;;;93.30;32.42;;;-2.20;99.90;;;;;;4970019;28;20047;-65
2022/12/17 16:09:45;;;;;;;70.85;25.88;;;-2.10;99.90;;;;;;4971404;28;20129;-66
2022/12/17 16:12:11;;;;;;;90.00;35.97;;;-0.50;99.90;;;;;;4970599;28;20297;-65
2022/12/17 16:14:36;;;;;;;101.20;35.03;;;-1.30;99.90;;;;;;4972417;28;20050;-65
2022/12/17 16:17:02;;;;;;;72.75;25.70;;;-2.10;99.90;;;;;;4971063;28;20049;-65
2022/12/17 16:19:28;;;;;;;100.35;35.40;;;-2.10;99.90;;;;;;4971813;28;20170;-65
2022/12/17 16:21:53;;;;;;;83.28;27.55;;;-2.50;99.90;;;;;;4969343;28;20493;-65
2022/12/17 16:24:19;;;;;;;91.45;31.65;;;-1.50;99.90;;;;;;4971678;28;20196;-65
2022/12/17 16:26:45;;;;;;;85.05;31.95;;;-2.30;99.90;;;;;;4971755;28;20043;-65
2022/12/17 16:29:11;;;;;;;76.57;26.92;;;-2.50;99.90;;;;;;4970772;28;20069;-65
2022/12/17 16:31:36;;;;;;;66.85;25.60;;;-1.00;99.90;;;;;;4971650;28;20050;-65
2022/12/17 16:34:06;;;;;;;83.75;26.15;;;-2.70;99.90;;;;;;4970987;28;20474;-65
2022/12/17 16:36:31;;;;;;;87.28;28.45;;;-0.30;99.90;;;;;;4968478;28;20054;-58
2022/12/17 16:38:57;;;;;;;74.63;25.30;;;-2.30;99.90;;;;;;4972426;28;20157;-57
2022/12/17 16:41:23;;;;;;;97.60;34.83;;;-0.50;99.90;;;;;;4971656;28;20034;-58
2022/12/17 16:43:49;;;;;;;96.28;31.02;;;-2.40;99.90;;;;;;4970813;28;20493;-58
2022/12/17 16:46:30;;;;;;;78.65;27.40;;;-2.40;99.90;;;;;;4971489;28;20721;-56
2022/12/17 16:48:58;;;;;;;91.53;29.75;;;-2.00;99.90;;;;;;4971997;28;20057;-59
2022/12/17 16:51:25;;;;;;;66.00;23.17;;;-2.00;99.90;;;;;;4970070;28;20052;-57
2022/12/17 16:53:51;;;;;;;72.07;23.30;;;-2.10;99.90;;;;;;4971634;28;20461;-58
2022/12/17 16:56:21;;;;;;;83.18;31.55;;;-0.50;99.90;;;;;;4971781;28;20082;-57
2022/12/17 16:58:47;;;;;;;90.75;29.95;;;-2.30;99.90;;;;;;4970721;28;20057;-58
2022/12/17 17:01:18;;;;;;;57.40;18.27;;;-2.60;99.90;;;;;;4970895;28;20041;-58
2022/12/17 17:03:43;;;;;;;77.35;26.73;;;-2.50;99.90;;;;;;4970777;28;20422;-57
2022/12/17 17:06:09;;;;;;;58.83;19.95;;;-2.40;99.90;;;;;;4969543;28;20173;-55
2022/12/17 17:08:37;;;;;;;65.53;24.58;;;-2.70;99.90;;;;;;4969664;28;20058;-58
2022/12/17 17:11:14;;;;;;;77.78;28.75;;;-3.30;99.90;;;;;;4969010;28;20540;-55
2022/12/17 17:13:40;;;;;;;77.53;25.63;;;-2.40;99.90;;;;;;4970272;28;20145;-56
2022/12/17 17:16:08;;;;;;;113.70;36.13;;;-2.70;99.90;;;;;;4971619;28;20387;-58
2022/12/17 17:18:35;;;;;;;70.85;24.63;;;-2.40;99.90;;;;;;4970958;28;20054;-55
2022/12/17 17:21:20;;;;;;;92.57;30.52;;;-2.40;99.90;;;;;;4970877;28;20120;-55
2022/12/17 17:23:48;;;;;;;96.20;30.02;;;-2.10;99.90;;;;;;4968939;28;20062;-57
2022/12/17 17:26:14;;;;;;;88.30;30.38;;;-2.60;99.90;;;;;;4970705;28;20074;-55
2022/12/17 17:28:40;;;;;;;69.70;25.40;;;-2.40;99.90;;;;;;4970013;28;20038;-54
2022/12/17 17:31:09;;;;;;;75.20;28.35;;;-2.20;99.90;;;;;;4969553;28;20057;-58
2022/12/17 17:33:37;;;;;;;108.97;34.42;;;-1.70;99.90;;;;;;4970497;28;20050;-58
2022/12/17 17:36:09;;;;;;;68.60;22.23;;;-0.70;99.90;;;;;;4970002;28;20072;-56
2022/12/17 17:38:36;;;;;;;94.45;33.05;;;-2.40;99.90;;;;;;4970479;28;20097;-59
2022/12/17 17:41:03;;;;;;;100.28;32.80;;;-1.30;99.90;;;;;;4968453;28;20653;-58
2022/12/17 17:43:30;;;;;;;111.45;34.75;;;-2.80;99.90;;;;;;4969167;28;20057;-59
2022/12/17 17:46:02;;;;;;;78.25;27.90;;;-2.40;99.90;;;;;;4971374;28;20034;-58
2022/12/17 17:48:31;;;;;;;74.20;24.92;;;-2.60;99.90;;;;;;4968920;28;20414;-59
2022/12/17 17:50:59;;;;;;;81.57;27.98;;;-2.50;99.90;;;;;;4968471;28;20057;-59
2022/12/17 17:53:25;;;;;;;111.80;32.75;;;-2.00;99.90;;;;;;4971352;28;20532;-57
2022/12/17 17:55:50;;;;;;;89.47;36.85;;;-2.50;99.90;;;;;;4970199;28;20039;-58
2022/12/17 17:58:16;;;;;;;94.85;30.90;;;-2.60;99.90;;;;;;4969986;28;20034;-59
2022/12/17 18:00:42;;;;;;;89.95;33.03;;;-2.80;99.90;;;;;;4970384;28;20536;-58
2022/12/17 18:03:07;;;;;;;80.38;28.65;;;-2.50;99.90;;;;;;4971146;28;20045;-59
2022/12/17 18:05:37;;;;;;;84.45;30.42;;;-2.70;99.90;;;;;;4969397;28;20062;-56
2022/12/17 18:08:03;;;;;;;94.70;35.03;;;-2.90;99.90;;;;;;4970913;28;20038;-57
2022/12/17 18:10:29;;;;;;;112.75;38.67;;;-2.80;99.90;;;;;;4969908;28;20046;-58
2022/12/17 18:15:39;;;;;;;120.03;38.58;;;-2.50;99.90;;;;;;4969772;28;20638;-58
2022/12/17 18:18:05;;;;;;;88.70;28.02;;;-2.10;99.90;;;;;;4970958;28;20050;-59
2022/12/17 18:20:30;;;;;;;92.20;37.50;;;-2.80;99.90;;;;;;4976891;28;20221;-58
2022/12/17 18:22:56;;;;;;;81.72;31.90;;;-2.60;99.90;;;;;;4976007;28;20034;-59
2022/12/17 18:25:22;;;;;;;89.10;30.25;;;-2.60;99.90;;;;;;4977608;28;20093;-59
2022/12/17 18:27:50;;;;;;;95.50;32.63;;;-2.90;99.90;;;;;;4975066;28;20281;-57
2022/12/17 18:30:15;;;;;;;85.88;27.67;;;-2.90;99.90;;;;;;4975703;28;20050;-56
2022/12/17 18:32:41;;;;;;;105.90;36.17;;;-2.60;99.90;;;;;;4970372;28;20140;-57
2022/12/17 18:35:07;;;;;;;94.72;34.47;;;-2.80;99.90;;;;;;4969481;28;20047;-59
2022/12/17 18:37:33;;;;;;;95.78;31.90;;;-2.60;99.90;;;;;;4972803;28;20117;-59
2022/12/17 18:39:58;;;;;;;92.22;42.67;;;-2.00;99.90;;;;;;4973273;28;20133;-58
2022/12/17 18:45:12;;;;;;;74.03;28.73;;;-2.90;99.90;;;;;;4969358;28;20120;-57
2022/12/17 18:47:37;;;;;;;85.85;33.40;;;-2.80;99.90;;;;;;4968016;28;21033;-59
2022/12/17 18:50:03;;;;;;;87.78;32.25;;;-2.90;99.90;;;;;;4967651;28;20042;-57
2022/12/17 18:52:29;;;;;;;116.82;39.72;;;-2.70;99.90;;;;;;4969215;28;20043;-59
2022/12/17 18:54:55;;;;;;;96.22;33.85;;;-3.00;99.90;;;;;;4968707;28;20144;-58
2022/12/17 18:57:20;;;;;;;92.90;35.50;;;-3.00;99.90;;;;;;4969286;28;20046;-58
2022/12/17 18:59:47;;;;;;;121.82;43.20;;;-2.80;99.90;;;;;;4969255;28;20545;-57
2022/12/17 19:02:13;;;;;;;98.03;34.45;;;-2.90;99.90;;;;;;4969653;28;20039;-59
2022/12/17 19:04:39;;;;;;;93.93;33.03;;;-3.00;99.90;;;;;;4967416;28;20151;-58
2022/12/17 19:07:05;;;;;;;109.32;43.20;;;-2.20;99.90;;;;;;4965768;28;20119;-56
2022/12/17 19:09:35;;;;;;;100.32;36.10;;;-2.80;99.90;;;;;;4968877;28;20054;-57
2022/12/17 19:12:03;;;;;;;83.60;31.13;;;-3.10;99.90;;;;;;4969662;28;20101;-58
2022/12/17 19:14:29;;;;;;;85.15;33.45;;;-2.90;99.90;;;;;;4968813;28;20090;-54
2022/12/17 19:16:56;;;;;;;123.75;45.00;;;-0.80;99.90;;;;;;4967647;28;20073;-58
2022/12/17 19:19:24;;;;;;;106.68;40.88;;;-3.10;99.90;;;;;;4969426;28;20548;-57
2022/12/17 19:21:53;;;;;;;115.50;40.13;;;-3.00;99.90;;;;;;4968980;28;20494;-58
2022/12/17 19:24:20;;;;;;;114.38;48.45;;;-3.10;99.90;;;;;;4968213;28;20240;-59
2022/12/17 19:26:47;;;;;;;107.03;37.75;;;-2.90;99.90;;;;;;4969127;28;20043;-58
2022/12/17 19:29:15;;;;;;;111.57;38.65;;;-2.80;99.90;;;;;;4966984;28;20093;-58
2022/12/17 19:31:42;;;;;;;114.85;38.10;;;-2.80;99.90;;;;;;4969189;28;20113;-58
2022/12/17 19:34:10;;;;;;;135.45;43.00;;;-2.80;99.90;;;;;;4968788;28;20035;-56
2022/12/17 19:36:37;;;;;;;131.73;53.22;;;-2.90;99.90;;;;;;4966207;28;20497;-59
2022/12/17 19:39:06;;;;;;;125.55;47.42;;;-3.10;99.90;;;;;;4967563;28;20046;-58
2022/12/17 19:41:32;;;;;;;97.72;33.90;;;-3.20;99.90;;;;;;4967802;28;20046;-57
2022/12/17 19:44:00;;;;;;;126.13;41.58;;;-2.90;99.90;;;;;;4969034;28;20093;-58
2022/12/17 19:46:26;;;;;;;119.28;40.63;;;-2.90;99.90;;;;;;4968950;28;20046;-59
2022/12/17 19:48:53;;;;;;;117.32;43.90;;;-2.90;99.90;;;;;;4968320;28;20276;-59
2022/12/17 19:51:21;;;;;;;97.55;37.50;;;-2.90;99.90;;;;;;4968110;28;20135;-58
2022/12/17 19:53:47;;;;;;;130.80;52.78;;;-2.50;99.90;;;;;;4968981;28;20840;-58
2022/12/17 19:56:20;;;;;;;141.63;47.97;;;-2.80;99.90;;;;;;4964628;28;20057;-57
2022/12/17 19:58:49;;;;;;;99.20;37.13;;;-3.10;99.90;;;;;;4963620;28;20599;-57
2022/12/17 20:01:19;;;;;;;145.00;52.22;;;-3.30;99.90;;;;;;4962042;28;20058;-58
2022/12/17 20:03:46;;;;;;;129.02;43.85;;;-3.30;99.90;;;;;;4967913;28;20089;-58
2022/12/17 20:06:14;;;;;;;128.68;50.65;;;-3.20;99.90;;;;;;4972734;28;20055;-58
2022/12/17 20:08:40;;;;;;;130.68;55.58;;;-2.60;99.90;;;;;;4973322;28;20532;-59
2022/12/17 20:13:58;;;;;;;151.20;55.97;;;-3.10;99.90;;;;;;4974191;28;20141;-58
2022/12/17 20:16:24;;;;;;;154.65;55.05;;;-3.20;99.90;;;;;;4974499;28;20060;-58
2022/12/17 20:18:50;;;;;;;121.03;45.38;;;-2.80;99.90;;;;;;4974564;28;20073;-57
2022/12/17 20:21:17;;;;;;;105.72;36.33;;;-3.00;99.90;;;;;;4973521;28;20086;-58
2022/12/17 20:23:48;;;;;;;129.35;48.58;;;-3.10;99.90;;;;;;4973148;28;20030;-57
2022/12/17 20:26:15;;;;;;;128.75;47.83;;;-3.30;99.90;;;;;;4973442;28;20497;-58
2022/12/17 20:28:40;;;;;;;123.90;43.78;;;-3.20;99.90;;;;;;4973818;28;20054;-58
2022/12/17 20:31:07;;;;;;;119.75;43.05;;;-3.10;99.90;;;;;;4974130;28;20033;-56
2022/12/17 20:33:33;;;;;;;112.72;40.33;;;-3.00;99.90;;;;;;4973631;28;20042;-58
2022/12/17 20:36:07;;;;;;;127.53;49.53;;;-3.30;99.90;;;;;;4973209;28;20113;-58
2022/12/17 20:38:33;;;;;;;123.60;48.40;;;-3.10;99.90;;;;;;4974132;28;20038;-58
2022/12/17 20:40:59;;;;;;;154.48;67.95;;;-2.50;99.90;;;;;;4970982;28;20255;-58
2022/12/17 20:43:26;;;;;;;106.97;42.72;;;-3.40;99.90;;;;;;4972848;28;20100;-58
2022/12/17 20:45:54;;;;;;;94.22;34.97;;;-3.20;99.90;;;;;;4972871;28;20030;-58
2022/12/17 20:48:21;;;;;;;139.77;49.50;;;-3.10;99.90;;;;;;4971870;28;20467;-58
2022/12/17 20:50:47;;;;;;;125.25;43.92;;;-3.30;99.90;;;;;;4971818;28;20185;-58
2022/12/17 20:53:12;;;;;;;93.28;33.90;;;-3.20;99.90;;;;;;4973165;28;20533;-57
2022/12/17 20:55:38;;;;;;;89.47;35.10;;;-1.30;99.90;;;;;;4973085;28;20053;-59
2022/12/17 20:58:04;;;;;;;127.45;46.22;;;-2.90;99.90;;;;;;4972591;28;20069;-58
2022/12/17 21:00:30;;;;;;;112.55;39.75;;;-2.10;99.90;;;;;;4972840;28;20038;-58
2022/12/17 21:02:55;;;;;;;108.90;40.17;;;-2.60;99.90;;;;;;4971963;28;20723;-58
2022/12/17 21:05:22;;;;;;;110.43;39.95;;;-3.10;99.90;;;;;;4972122;28;20130;-59
2022/12/17 21:07:49;;;;;;;136.38;49.38;;;-2.70;99.90;;;;;;4972054;28;20034;-58
2022/12/17 21:10:15;;;;;;;105.10;36.50;;;-3.10;99.90;;;;;;4971015;28;20515;-55
2022/12/17 21:15:26;;;;;;;110.80;39.97;;;-3.10;99.90;;;;;;4971745;28;20062;-56
2022/12/17 21:17:52;;;;;;;119.78;44.13;;;-3.00;99.90;;;;;;4972463;28;20109;-58
2022/12/17 21:20:17;;;;;;;112.18;40.30;;;-3.20;99.90;;;;;;4971766;28;20055;-58
2022/12/17 21:22:43;;;;;;;105.65;39.80;;;-3.20;99.90;;;;;;4975547;28;20041;-58
2022/12/17 21:25:09;;;;;;;119.18;47.63;;;-2.40;99.90;;;;;;4974763;28;20046;-55
2022/12/17 21:27:35;;;;;;;96.13;39.97;;;-2.40;99.90;;;;;;4975443;28;20064;-58
2022/12/17 21:30:01;;;;;;;113.85;44.67;;;-2.30;99.90;;;;;;4976407;28;20446;-57
2022/12/17 21:32:27;;;;;;;108.75;45.10;;;-3.50;99.90;;;;;;4977441;28;20061;-58
2022/12/17 21:34:52;;;;;;;115.22;45.47;;;-3.20;99.90;;;;;;4973203;28;20050;-57
2022/12/17 21:37:18;;;;;;;103.97;42.83;;;-3.50;99.90;;;;;;4972104;28;20121;-58
2022/12/17 21:39:44;;;;;;;83.57;32.00;;;-3.20;99.90;;;;;;4971444;28;20062;-58
2022/12/17 21:44:54;;;;;;;97.13;38.22;;;-3.60;99.90;;;;;;4970832;28;20134;-57
2022/12/17 21:47:19;;;;;;;85.80;33.92;;;-3.30;99.90;;;;;;4972823;28;20113;-58
2022/12/17 21:49:45;;;;;;;103.13;40.78;;;-3.50;99.90;;;;;;4968198;28;20048;-58
2022/12/17 21:52:11;;;;;;;116.40;52.70;;;-3.30;99.90;;;;;;4969462;28;20038;-57
2022/12/17 21:54:36;;;;;;;103.28;38.92;;;-3.30;99.90;;;;;;4966872;28;20069;-54
2022/12/17 21:57:02;;;;;;;108.35;40.90;;;-3.60;99.90;;;;;;4967345;28;20069;-58
2022/12/17 21:59:28;;;;;;;109.90;37.42;;;-3.50;99.90;;;;;;4969470;28;20038;-57
2022/12/17 22:01:55;;;;;;;97.50;37.35;;;-3.30;99.90;;;;;;4966168;28;20067;-57
2022/12/17 22:04:22;;;;;;;111.47;45.20;;;-3.50;99.90;;;;;;4970329;28;20038;-57
2022/12/17 22:06:48;;;;;;;107.10;38.70;;;-2.40;99.90;;;;;;4968203;28;20148;-58
2022/12/17 22:09:14;;;;;;;112.70;40.65;;;-3.40;99.90;;;;;;4972244;28;20045;-56
2022/12/17 22:11:39;;;;;;;110.72;36.35;;;-3.90;99.90;;;;;;4965113;28;20514;-58
2022/12/17 22:14:08;;;;;;;122.15;41.35;;;-3.80;99.90;;;;;;4965852;28;20054;-58
2022/12/17 22:16:45;;;;;;;87.13;32.92;;;-3.60;99.90;;;;;;4973213;28;20144;-56
2022/12/17 22:19:19;;;;;;;154.63;49.33;;;-3.70;99.90;;;;;;4969785;28;20506;-58
2022/12/17 22:21:46;;;;;;;101.45;38.50;;;-3.70;99.90;;;;;;4971587;28;20054;-57
2022/12/17 22:24:18;;;;;;;121.63;36.53;;;-3.40;99.90;;;;;;4966156;28;20133;-58
2022/12/17 22:26:44;;;;;;;88.93;29.33;;;-3.50;99.90;;;;;;4973893;28;20068;-57
2022/12/17 22:29:09;;;;;;;115.40;42.05;;;-3.60;99.90;;;;;;4967041;28;20325;-58
2022/12/17 22:34:19;;;;;;;85.30;30.20;;;-3.70;99.90;;;;;;4966963;28;20521;-58
2022/12/17 22:36:45;;;;;;;109.53;36.28;;;-3.70;99.90;;;;;;4972744;28;20044;-57
2022/12/17 22:39:13;;;;;;;88.95;32.42;;;-3.60;99.90;;;;;;4968143;28;20034;-58
2022/12/17 22:44:24;;;;;;;132.15;48.17;;;-3.60;99.90;;;;;;4965553;28;20242;-57
2022/12/17 22:46:50;;;;;;;94.15;32.92;;;-2.70;99.90;;;;;;4966997;28;20042;-54
2022/12/17 22:49:16;;;;;;;124.60;42.13;;;-3.70;99.90;;;;;;4965680;28;20234;-58
2022/12/17 22:51:43;;;;;;;140.00;49.33;;;-3.40;99.90;;;;;;4971724;28;20116;-59
2022/12/17 22:54:10;;;;;;;97.93;36.28;;;-3.90;99.90;;;;;;4969141;28;20525;-56
2022/12/17 22:56:38;;;;;;;98.25;33.97;;;-2.70;99.90;;;;;;4973254;28;20046;-57
2022/12/17 22:59:04;;;;;;;92.30;30.00;;;-3.90;99.90;;;;;;4967971;28;20057;-58
2022/12/17 23:01:30;;;;;;;107.85;40.10;;;-3.70;99.90;;;;;;4971767;28;20147;-57
2022/12/17 23:03:58;;;;;;;140.32;49.80;;;-3.90;99.90;;;;;;4965493;28;20511;-57
2022/12/17 23:06:24;;;;;;;108.82;39.67;;;-3.80;99.90;;;;;;4966364;28;20051;-58
2022/12/17 23:08:50;;;;;;;82.88;29.10;;;-3.00;99.90;;;;;;4971012;28;20054;-58
2022/12/17 23:11:21;;;;;;;122.65;43.90;;;-4.20;99.90;;;;;;4968722;28;20096;-58
2022/12/17 23:13:47;;;;;;;98.53;33.80;;;-4.20;99.90;;;;;;4966287;28;20050;-58
2022/12/17 23:16:13;;;;;;;99.95;34.85;;;-4.00;99.90;;;;;;4965714;28;20150;-57
2022/12/17 23:18:40;;;;;;;119.57;41.50;;;-4.10;99.90;;;;;;4966510;28;20057;-56
2022/12/17 23:21:12;;;;;;;103.25;34.85;;;-4.10;99.90;;;;;;4965994;28;20439;-58
2022/12/17 23:23:38;;;;;;;112.20;40.35;;;-3.70;99.90;;;;;;4961929;28;20046;-58
2022/12/17 23:26:15;;;;;;;132.20;46.50;;;-4.10;99.90;;;;;;4967953;28;20070;-57
2022/12/17 23:28:42;;;;;;;112.45;40.22;;;-4.30;99.90;;;;;;4967035;28;20050;-56
2022/12/17 23:31:09;;;;;;;101.75;37.22;;;-4.20;99.90;;;;;;4981563;28;20424;-57
2022/12/17 23:33:36;;;;;;;107.20;37.97;;;-4.20;99.90;;;;;;4972066;28;20141;-59
2022/12/17 23:36:13;;;;;;;123.78;38.92;;;-4.30;99.90;;;;;;4971600;28;20042;-58
2022/12/17 23:38:40;;;;;;;142.18;44.83;;;-4.30;99.90;;;;;;4965749;28;20050;-56
2022/12/17 23:41:16;;;;;;;133.82;45.58;;;-4.00;99.90;;;;;;4964200;28;20118;-57
2022/12/17 23:43:41;;;;;;;92.68;30.38;;;-4.10;99.90;;;;;;4965785;28;20124;-58
2022/12/17 23:46:08;;;;;;;126.25;42.42;;;-4.10;99.90;;;;;;4965606;28;20051;-59
2022/12/17 23:48:36;;;;;;;109.10;34.35;;;-4.40;99.90;;;;;;4966447;28;20069;-59
2022/12/17 23:51:02;;;;;;;115.95;36.80;;;-4.40;99.90;;;;;;4965529;28;20050;-59
2022/12/17 23:53:29;;;;;;;116.82;37.85;;;-4.40;99.90;;;;;;4965996;28;20517;-59
2022/12/17 23:55:55;;;;;;;132.52;43.58;;;-3.60;99.90;;;;;;4965335;28;20049;-59
2022/12/17 23:58:21;;;;;;;117.47;37.75;;;-4.20;99.90;;;;;;4966628;28;20038;-57
